• Join FlightAware (Why Join?)
  • Login
  • US Flag 
03:09AM EST


 

Airport Tracker/Info


-or-


 

Live Flight TrackerFlight Track Log ✈ N8554A ✈ 23-May-2012 ✈ KEVV - KDTW

Flight Track Log - Related Links

Times and Time Zones

All times are in EDT time to prevent confusion due to time zone crossing. See the N8554A flight status page for this flight to view local times or setup timezone preferences in your user account.

Time Position Orientation Groundspeed Altitude Reporting Facility
EDT Latitude Longitude Course Direction KTS MPH feet Rate Location/Type
09:54AM 38.0747 -87.5672 27° Northeast 247 284 4,900  Level Indianapolis Center
09:59AM 38.4500 -87.3228 28° Northeast 331 381 15,100 1,800 Climbing Indianapolis Center
10:00AM 38.5436 -87.2586 29° Northeast 356 410 16,000 840 Climbing Indianapolis Center
10:01AM 38.6397 -87.1917 28° Northeast 373 429 16,900 900 Climbing Indianapolis Center
10:02AM 38.7397 -87.1247 29° Northeast 391 450 17,900 1,020 Climbing Indianapolis Center
10:03AM 38.8356 -87.0575 28° Northeast 391 450 19,000 1,020 Climbing Indianapolis Center
10:04AM 38.9378 -86.9878 29° Northeast 396 456 20,000 960 Climbing Indianapolis Center
10:05AM 39.0442 -86.9125 30° Northeast 396 456 21,000 1,020 Climbing Indianapolis Center
10:06AM 39.1400 -86.8422 28° Northeast 396 456 22,100 900 Climbing Indianapolis Center
10:07AM 39.2272 -86.7819 28° Northeast 391 450 22,900 420 Climbing Indianapolis Center
10:08AM 39.3292 -86.7114 29° Northeast 401 461 23,000  Climbing Indianapolis Center
10:09AM 39.4333 -86.6378 28° Northeast 410 472 23,000  Level Indianapolis Center
10:10AM 39.5394 -86.5644 28° Northeast 425 489 23,000  Level Indianapolis Center
10:11AM 39.6478 -86.4881 31° Northeast 431 496 23,000  Level Indianapolis Center
10:13AM 39.9075 -86.2808 38° Northeast 444 511 23,000  Level Chicago Center
10:14AM 39.9947 -86.1928 38° Northeast 449 517 23,000  Level Chicago Center
10:15AM 40.0919 -86.0931 37° Northeast 444 511 23,000  Level Chicago Center
10:16AM 40.1914 -85.9958 38° Northeast 450 518 23,000  Level Chicago Center
10:17AM 40.2906 -85.8956 38° Northeast 442 509 23,000  Level Chicago Center
10:18AM 40.3875 -85.7978 38° Northeast 442 509 23,000  Level Chicago Center
10:19AM 40.4786 -85.7056 38° Northeast 428 493 23,000  Level Chicago Center
10:20AM 40.5756 -85.6072 38° Northeast 410 472 23,000 -60 Level Chicago Center
10:21AM 40.6642 -85.5147 38° Northeast 404 465 22,900 -600 Descending Chicago Center
10:22AM 40.7506 -85.4247 39° Northeast 404 465 21,800 -960 Descending Chicago Center
10:23AM 40.8292 -85.3403 38° Northeast 404 465 21,000 -960 Descending Chicago Center
10:24AM 40.9175 -85.2497 38° Northeast 405 466 19,900 -720 Descending Chicago Center
10:26AM 41.0833 -85.0794 40° Northeast 405 466 19,000 -360 Descending Cleveland Center
10:27AM 41.1664 -84.9858 39° Northeast 405 466 19,000  Level Cleveland Center
10:28AM 41.2511 -84.8950 39° Northeast 393 452 19,000  Level Cleveland Center
10:29AM 41.3358 -84.8036 38° Northeast 393 452 19,000  Level Cleveland Center
10:30AM 41.4206 -84.7150 40° Northeast 393 452 19,000 -300 Level Cleveland Center
10:31AM 41.4922 -84.6336 39° Northeast 388 447 18,500 -780 Descending Cleveland Center
10:32AM 41.5767 -84.5417 40° Northeast 388 447 17,500 -1,020 Descending Cleveland Center
10:33AM 41.6569 -84.4522 57° Northeast 381 438 16,500 -1,200 Descending Cleveland Center
10:34AM 41.7197 -84.3222 63° Northeast 369 425 15,100 -1,440 Descending Cleveland Center
10:35AM 41.7606 -84.2133 64° Northeast 361 415 13,600 -1,500 Descending Cleveland Center
10:36AM 41.8086 -84.0822 53° Northeast 378 435 12,100 -840 Descending Cleveland Center
10:37AM 41.8789 -83.9578 43° Northeast 378 435 12,000 -60 Descending Cleveland Center
10:38AM 41.9525 -83.8667 43° Northeast 373 429 12,000  Level Cleveland Center
10:39AM 42.0303 -83.7703 44° Northeast 361 415 12,000  Level Cleveland Center
10:40AM 42.0953 -83.6867 42° Northeast 341 392 12,000  Level Cleveland Center
10:41AM 42.1519 -83.6175 42° Northeast 257 296 12,000  Level FAA TRACON SMA TRACON (SMA)
10:42AM 42.1878 -83.5744 24° Northeast 254 292 12,000  Level FAA TRACON SMA TRACON (SMA)
10:42AM 42.2286 -83.5494 22° Northeast 257 296 12,000 -420 Level FAA TRACON SMA TRACON (SMA)
10:43AM 42.2739 -83.5250 21° North 255 293 11,500 -960 Descending FAA TRACON SMA TRACON (SMA)
10:44AM 42.3178 -83.5022 21° North 242 278 10,800 -1,080 Descending FAA TRACON SMA TRACON (SMA)
10:44AM 42.3567 -83.4822 22° Northeast 242 278 10,100 -1,260 Descending FAA TRACON SMA TRACON (SMA)
10:45AM 42.3992 -83.4592 23° Northeast 236 272 9,100 -1,380 Descending FAA TRACON SMA TRACON (SMA)
10:46AM 42.4419 -83.4347 41° Northeast 241 277 8,300 -1,320 Descending FAA TRACON SMA TRACON (SMA)
10:46AM 42.4761 -83.3944 101° East 243 280 7,400 -1,500 Descending FAA TRACON SMA TRACON (SMA)
10:47AM 42.4647 -83.3178 161° South 218 251 5,900 -1,260 Descending FAA TRACON SMA TRACON (SMA)
10:48AM 42.4303 -83.3019 173° South 202 232 5,300 -1,080 Descending FAA TRACON SMA TRACON (SMA)
10:49AM 42.3944 -83.2956 175° South 189 217 4,500 -1,200 Descending FAA TRACON SMA TRACON (SMA)
10:49AM 42.3592 -83.2917 175° South 192 221 3,700 -1,200 Descending FAA TRACON SMA TRACON (SMA)